sensor_id;sensor_type;location;lat;lon;timestamp;temperature;humidity
15638;DHT22;26604;53.596;10.042;2024-01-15T05:37:42;2.10;99.90
15638;DHT22;26604;53.596;10.042;2024-01-15T05:40:10;2.20;99.90
15638;DHT22;26604;53.596;10.042;2024-01-15T05:42:37;2.20;99.90
15638;DHT22;26604;53.596;10.042;2024-01-15T05:45:05;2.20;99.90
15638;DHT22;26604;53.596;10.042;2024-01-15T05:47:32;2.20;99.90
15638;DHT22;26604;53.596;10.042;2024-01-15T05:50:00;2.30;99.90
15638;DHT22;26604;53.596;10.042;2024-01-15T05:52:27;2.20;99.90
15638;DHT22;26604;53.596;10.042;2024-01-15T05:54:55;2.20;99.90
15638;DHT22;26604;53.596;10.042;2024-01-15T05:57:23;2.20;99.90
15638;DHT22;26604;53.596;10.042;2024-01-15T05:59:49;2.30;99.90
15638;DHT22;26604;53.596;10.042;2024-01-15T06:02:16;2.30;99.90
15638;DHT22;26604;53.596;10.042;2024-01-15T06:04:43;2.30;99.90
15638;DHT22;26604;53.596;10.042;2024-01-15T06:07:10;2.20;99.90
15638;DHT22;26604;53.596;10.042;2024-01-15T06:09:37;2.20;99.90
15638;DHT22;26604;53.596;10.042;2024-01-15T06:12:06;2.20;99.90
15638;DHT22;26604;53.596;10.042;2024-01-15T06:14:33;2.20;99.90
15638;DHT22;26604;53.596;10.042;2024-01-15T06:17:00;2.20;99.90
15638;DHT22;26604;53.596;10.042;2024-01-15T06:19:27;2.10;99.90
15638;DHT22;26604;53.596;10.042;2024-01-15T06:21:54;2.10;99.90
15638;DHT22;26604;53.596;10.042;2024-01-15T06:24:20;2.10;99.90
15638;DHT22;26604;53.596;10.042;2024-01-15T06:26:47;2.10;99.90
15638;DHT22;26604;53.596;10.042;2024-01-15T06:29:15;2.10;99.90
15638;DHT22;26604;53.596;10.042;2024-01-15T06:31:42;2.20;99.90
15638;DHT22;26604;53.596;10.042;2024-01-15T06:34:09;2.20;99.90
15638;DHT22;26604;53.596;10.042;2024-01-15T06:36:36;2.30;99.90
15638;DHT22;26604;53.596;10.042;2024-01-15T06:39:03;2.30;99.90
15638;DHT22;26604;53.596;10.042;2024-01-15T06:41:30;2.20;99.90
15638;DHT22;26604;53.596;10.042;2024-01-15T06:43:57;2.30;99.90
15638;DHT22;26604;53.596;10.042;2024-01-15T06:46:25;2.30;99.90
15638;DHT22;26604;53.596;10.042;2024-01-15T06:48:52;2.30;99.90
15638;DHT22;26604;53.596;10.042;2024-01-15T06:51:19;2.20;99.90
15638;DHT22;26604;53.596;10.042;2024-01-15T06:53:46;2.30;99.90
15638;DHT22;26604;53.596;10.042;2024-01-15T06:56:12;2.30;99.90
15638;DHT22;26604;53.596;10.042;2024-01-15T06:58:39;2.50;99.90
15638;DHT22;26604;53.596;10.042;2024-01-15T07:01:06;2.50;99.90
15638;DHT22;26604;53.596;10.042;2024-01-15T07:03:34;2.50;99.90
15638;DHT22;26604;53.596;10.042;2024-01-15T07:06:01;2.50;99.90
15638;DHT22;26604;53.596;10.042;2024-01-15T07:08:28;2.60;99.90
15638;DHT22;26604;53.596;10.042;2024-01-15T07:10:55;2.60;99.90
15638;DHT22;26604;53.596;10.042;2024-01-15T07:13:22;2.60;99.90
15638;DHT22;26604;53.596;10.042;2024-01-15T07:15:49;2.60;99.90
15638;DHT22;26604;53.596;10.042;2024-01-15T07:18:16;2.60;99.90
15638;DHT22;26604;53.596;10.042;2024-01-15T07:20:44;2.60;99.90
15638;DHT22;26604;53.596;10.042;2024-01-15T07:23:11;2.70;99.90
15638;DHT22;26604;53.596;10.042;2024-01-15T07:25:38;2.70;99.90
15638;DHT22;26604;53.596;10.042;2024-01-15T07:28:05;2.70;99.90
15638;DHT22;26604;53.596;10.042;2024-01-15T07:30:32;2.70;99.90
15638;DHT22;26604;53.596;10.042;2024-01-15T07:32:59;2.80;99.90
15638;DHT22;26604;53.596;10.042;2024-01-15T07:35:25;2.80;99.90
15638;DHT22;26604;53.596;10.042;2024-01-15T07:37:53;2.90;99.90
15638;DHT22;26604;53.596;10.042;2024-01-15T07:40:21;2.90;99.90
15638;DHT22;26604;53.596;10.042;2024-01-15T07:42:47;3.00;99.90
15638;DHT22;26604;53.596;10.042;2024-01-15T07:45:14;2.90;99.90
15638;DHT22;26604;53.596;10.042;2024-01-15T07:47:41;2.90;99.90
15638;DHT22;26604;53.596;10.042;2024-01-15T07:50:08;2.90;99.90
15638;DHT22;26604;53.596;10.042;2024-01-15T07:52:35;2.90;99.90
15638;DHT22;26604;53.596;10.042;2024-01-15T07:55:04;2.90;99.90
15638;DHT22;26604;53.596;10.042;2024-01-15T07:57:31;3.00;99.90
15638;DHT22;26604;53.596;10.042;2024-01-15T07:59:58;3.00;99.90
15638;DHT22;26604;53.596;10.042;2024-01-15T08:02:24;3.00;1.00
15638;DHT22;26604;53.596;10.042;2024-01-15T08:04:51;3.00;99.90
15638;DHT22;26604;53.596;10.042;2024-01-15T08:07:18;3.00;99.90
15638;DHT22;26604;53.596;10.042;2024-01-15T08:09:45;3.10;99.90
15638;DHT22;26604;53.596;10.042;2024-01-15T08:12:15;3.10;99.90
15638;DHT22;26604;53.596;10.042;2024-01-15T08:14:42;3.20;99.90
15638;DHT22;26604;53.596;10.042;2024-01-15T08:17:09;3.20;99.90
15638;DHT22;26604;53.596;10.042;2024-01-15T08:19:36;3.20;99.90
15638;DHT22;26604;53.596;10.042;2024-01-15T08:22:03;3.20;99.90
15638;DHT22;26604;53.596;10.042;2024-01-15T08:24:30;3.20;99.90
15638;DHT22;26604;53.596;10.042;2024-01-15T08:26:57;3.20;99.90
15638;DHT22;26604;53.596;10.042;2024-01-15T08:29:25;3.20;99.90
15638;DHT22;26604;53.596;10.042;2024-01-15T08:31:52;3.20;99.90
15638;DHT22;26604;53.596;10.042;2024-01-15T08:34:19;3.20;99.90
15638;DHT22;26604;53.596;10.042;2024-01-15T08:36:46;3.30;99.90
15638;DHT22;26604;53.596;10.042;2024-01-15T08:39:12;3.30;99.90
15638;DHT22;26604;53.596;10.042;2024-01-15T08:41:39;3.30;99.90
15638;DHT22;26604;53.596;10.042;2024-01-15T08:44:06;3.30;99.90
15638;DHT22;26604;53.596;10.042;2024-01-15T08:46:34;3.30;99.90
15638;DHT22;26604;53.596;10.042;2024-01-15T08:49:01;3.40;99.90
15638;DHT22;26604;53.596;10.042;2024-01-15T08:51:28;3.40;99.90
15638;DHT22;26604;53.596;10.042;2024-01-15T08:53:56;3.30;99.90
15638;DHT22;26604;53.596;10.042;2024-01-15T08:56:23;3.40;99.90
15638;DHT22;26604;53.596;10.042;2024-01-15T08:58:50;3.50;99.90
15638;DHT22;26604;53.596;10.042;2024-01-15T09:01:16;3.50;99.90
15638;DHT22;26604;53.596;10.042;2024-01-15T09:03:46;3.50;99.90
15638;DHT22;26604;53.596;10.042;2024-01-15T09:06:13;3.40;99.90
15638;DHT22;26604;53.596;10.042;2024-01-15T09:08:40;3.40;99.90
15638;DHT22;26604;53.596;10.042;2024-01-15T09:11:07;3.40;99.90
15638;DHT22;26604;53.596;10.042;2024-01-15T09:13:34;3.40;99.90
15638;DHT22;26604;53.596;10.042;2024-01-15T09:16:01;3.30;99.90
15638;DHT22;26604;53.596;10.042;2024-01-15T09:18:28;3.30;99.90
15638;DHT22;26604;53.596;10.042;2024-01-15T09:20:57;3.30;99.90
15638;DHT22;26604;53.596;10.042;2024-01-15T09:23:24;3.30;99.90
15638;DHT22;26604;53.596;10.042;2024-01-15T09:25:51;3.30;99.90
15638;DHT22;26604;53.596;10.042;2024-01-15T09:28:18;3.30;99.90
15638;DHT22;26604;53.596;10.042;2024-01-15T09:30:45;3.30;99.90
15638;DHT22;26604;53.596;10.042;2024-01-15T09:33:12;3.20;99.90
15638;DHT22;26604;53.596;10.042;2024-01-15T09:35:39;3.20;99.90
15638;DHT22;26604;53.596;10.042;2024-01-15T09:38:07;3.10;99.90
15638;DHT22;26604;53.596;10.042;2024-01-15T09:40:38;3.00;99.90
15638;DHT22;26604;53.596;10.042;2024-01-15T09:43:05;2.90;99.90
15638;DHT22;26604;53.596;10.042;2024-01-15T09:45:32;2.90;99.90
15638;DHT22;26604;53.596;10.042;2024-01-15T09:47:59;2.80;99.90
15638;DHT22;26604;53.596;10.042;2024-01-15T09:50:26;2.70;99.90
15638;DHT22;26604;53.596;10.042;2024-01-15T09:52:54;2.60;99.90
15638;DHT22;26604;53.596;10.042;2024-01-15T09:55:24;2.50;99.90
15638;DHT22;26604;53.596;10.042;2024-01-15T09:57:52;2.50;99.90
15638;DHT22;26604;53.596;10.042;2024-01-15T10:00:20;2.40;99.90
15638;DHT22;26604;53.596;10.042;2024-01-15T10:02:47;2.40;99.90
15638;DHT22;26604;53.596;10.042;2024-01-15T10:05:15;2.40;99.90
15638;DHT22;26604;53.596;10.042;2024-01-15T10:07:42;2.40;99.90
15638;DHT22;26604;53.596;10.042;2024-01-15T10:10:11;2.30;99.90
15638;DHT22;26604;53.596;10.042;2024-01-15T10:12:39;2.30;99.90
15638;DHT22;26604;53.596;10.042;2024-01-15T10:15:09;2.40;99.90
15638;DHT22;26604;53.596;10.042;2024-01-15T10:17:37;2.30;99.90
15638;DHT22;26604;53.596;10.042;2024-01-15T10:20:08;2.30;99.90
15638;DHT22;26604;53.596;10.042;2024-01-15T10:22:35;2.40;99.90
15638;DHT22;26604;53.596;10.042;2024-01-15T10:25:04;2.40;99.90
15638;DHT22;26604;53.596;10.042;2024-01-15T10:27:31;2.50;99.90
15638;DHT22;26604;53.596;10.042;2024-01-15T10:30:00;2.50;99.90
15638;DHT22;26604;53.596;10.042;2024-01-15T10:32:28;2.50;99.90
15638;DHT22;26604;53.596;10.042;2024-01-15T10:34:55;2.60;99.90
15638;DHT22;26604;53.596;10.042;2024-01-15T10:37:24;2.70;99.90
15638;DHT22;26604;53.596;10.042;2024-01-15T10:39:51;2.70;99.90
15638;DHT22;26604;53.596;10.042;2024-01-15T10:42:18;2.70;99.90
15638;DHT22;26604;53.596;10.042;2024-01-15T10:44:45;2.80;99.90
15638;DHT22;26604;53.596;10.042;2024-01-15T10:47:14;2.80;99.90
15638;DHT22;26604;53.596;10.042;2024-01-15T10:49:42;2.80;99.90
15638;DHT22;26604;53.596;10.042;2024-01-15T10:52:08;2.80;99.90
15638;DHT22;26604;53.596;10.042;2024-01-15T10:54:37;2.70;99.90
15638;DHT22;26604;53.596;10.042;2024-01-15T10:57:06;2.70;99.90
15638;DHT22;26604;53.596;10.042;2024-01-15T10:59:32;2.70;1.00
15638;DHT22;26604;53.596;10.042;2024-01-15T11:01:59;2.80;1.00
15638;DHT22;26604;53.596;10.042;2024-01-15T11:04:28;2.70;1.00
15638;DHT22;26604;53.596;10.042;2024-01-15T11:06:58;2.80;1.00
15638;DHT22;26604;53.596;10.042;2024-01-15T11:09:25;2.80;87.70
15638;DHT22;26604;53.596;10.042;2024-01-15T11:11:54;2.80;1.00
15638;DHT22;26604;53.596;10.042;2024-01-15T11:14:38;2.80;31.30
15638;DHT22;26604;53.596;10.042;2024-01-15T11:17:05;2.90;99.90
15638;DHT22;26604;53.596;10.042;2024-01-15T11:19:42;2.90;1.00
15638;DHT22;26604;53.596;10.042;2024-01-15T11:22:11;3.00;99.90
15638;DHT22;26604;53.596;10.042;2024-01-15T11:24:58;3.10;99.90
15638;DHT22;26604;53.596;10.042;2024-01-15T11:27:39;3.10;99.90
15638;DHT22;26604;53.596;10.042;2024-01-15T11:30:08;3.20;99.90
15638;DHT22;26604;53.596;10.042;2024-01-15T11:32:36;3.10;1.00
15638;DHT22;26604;53.596;10.042;2024-01-15T11:35:05;3.10;99.90
15638;DHT22;26604;53.596;10.042;2024-01-15T11:37:58;3.10;99.90
15638;DHT22;26604;53.596;10.042;2024-01-15T11:40:41;3.10;37.40
15638;DHT22;26604;53.596;10.042;2024-01-15T11:43:10;3.10;1.00
15638;DHT22;26604;53.596;10.042;2024-01-15T11:45:39;3.10;71.70
15638;DHT22;26604;53.596;10.042;2024-01-15T11:48:11;3.10;58.80
15638;DHT22;26604;53.596;10.042;2024-01-15T11:50:42;3.10;99.90
15638;DHT22;26604;53.596;10.042;2024-01-15T11:53:16;3.30;81.60
15638;DHT22;26604;53.596;10.042;2024-01-15T11:55:44;3.30;98.00
15638;DHT22;26604;53.596;10.042;2024-01-15T11:58:14;3.40;99.90
15638;DHT22;26604;53.596;10.042;2024-01-15T12:00:43;3.40;99.90
15638;DHT22;26604;53.596;10.042;2024-01-15T12:03:10;3.50;1.00
15638;DHT22;26604;53.596;10.042;2024-01-15T12:05:37;3.50;1.00
15638;DHT22;26604;53.596;10.042;2024-01-15T12:08:06;3.50;39.80
15638;DHT22;26604;53.596;10.042;2024-01-15T12:10:36;3.50;1.00
15638;DHT22;26604;53.596;10.042;2024-01-15T12:13:05;3.40;1.00
15638;DHT22;26604;53.596;10.042;2024-01-15T12:15:34;3.40;1.00
15638;DHT22;26604;53.596;10.042;2024-01-15T12:18:02;3.40;1.00
15638;DHT22;26604;53.596;10.042;2024-01-15T12:20:30;3.40;1.00
15638;DHT22;26604;53.596;10.042;2024-01-15T12:22:57;3.40;1.00
15638;DHT22;26604;53.596;10.042;2024-01-15T12:25:26;3.40;99.90
15638;DHT22;26604;53.596;10.042;2024-01-15T12:27:53;3.40;99.90
15638;DHT22;26604;53.596;10.042;2024-01-15T12:30:21;3.40;99.90
15638;DHT22;26604;53.596;10.042;2024-01-15T12:32:48;3.30;99.90
15638;DHT22;26604;53.596;10.042;2024-01-15T12:35:15;3.40;99.90
15638;DHT22;26604;53.596;10.042;2024-01-15T12:37:42;3.30;1.00
15638;DHT22;26604;53.596;10.042;2024-01-15T12:40:10;3.30;99.90
15638;DHT22;26604;53.596;10.042;2024-01-15T12:42:39;3.40;22.40
15638;DHT22;26604;53.596;10.042;2024-01-15T12:45:07;3.40;99.90
15638;DHT22;26604;53.596;10.042;2024-01-15T12:47:34;3.30;99.90
15638;DHT22;26604;53.596;10.042;2024-01-15T12:50:01;3.20;99.90
15638;DHT22;26604;53.596;10.042;2024-01-15T12:52:28;3.20;1.00
15638;DHT22;26604;53.596;10.042;2024-01-15T12:54:56;3.20;1.00
15638;DHT22;26604;53.596;10.042;2024-01-15T12:57:23;3.20;1.00
15638;DHT22;26604;53.596;10.042;2024-01-15T12:59:51;3.20;1.00
15638;DHT22;26604;53.596;10.042;2024-01-15T13:02:18;3.20;64.30
15638;DHT22;26604;53.596;10.042;2024-01-15T13:04:45;3.20;81.10
15638;DHT22;26604;53.596;10.042;2024-01-15T13:07:12;3.20;99.90
15638;DHT22;26604;53.596;10.042;2024-01-15T13:09:39;3.20;99.90
15638;DHT22;26604;53.596;10.042;2024-01-15T13:12:06;3.10;99.90
15638;DHT22;26604;53.596;10.042;2024-01-15T13:14:33;3.10;99.90
15638;DHT22;26604;53.596;10.042;2024-01-15T13:17:01;3.10;43.60
15638;DHT22;26604;53.596;10.042;2024-01-15T13:19:29;3.10;1.00
15638;DHT22;26604;53.596;10.042;2024-01-15T13:21:56;3.10;1.00
15638;DHT22;26604;53.596;10.042;2024-01-15T13:24:25;3.10;1.00
15638;DHT22;26604;53.596;10.042;2024-01-15T13:26:52;3.10;38.40
15638;DHT22;26604;53.596;10.042;2024-01-15T13:29:19;3.10;99.90
15638;DHT22;26604;53.596;10.042;2024-01-15T13:31:46;3.00;99.90
15638;DHT22;26604;53.596;10.042;2024-01-15T13:34:14;3.00;1.00
15638;DHT22;26604;53.596;10.042;2024-01-15T13:36:41;3.00;1.00
15638;DHT22;26604;53.596;10.042;2024-01-15T13:39:08;3.00;1.00
15638;DHT22;26604;53.596;10.042;2024-01-15T13:41:35;3.00;1.00
15638;DHT22;26604;53.596;10.042;2024-01-15T13:44:02;3.00;1.00
15638;DHT22;26604;53.596;10.042;2024-01-15T13:46:29;3.00;1.00
15638;DHT22;26604;53.596;10.042;2024-01-15T13:48:56;3.00;1.00
15638;DHT22;26604;53.596;10.042;2024-01-15T13:51:24;2.90;99.90
15638;DHT22;26604;53.596;10.042;2024-01-15T13:53:51;2.90;51.20
15638;DHT22;26604;53.596;10.042;2024-01-15T13:56:18;2.80;99.90
15638;DHT22;26604;53.596;10.042;2024-01-15T13:58:46;2.70;5.20
15638;DHT22;26604;53.596;10.042;2024-01-15T14:01:15;2.70;99.90
15638;DHT22;26604;53.596;10.042;2024-01-15T14:03:43;2.60;1.00
15638;DHT22;26604;53.596;10.042;2024-01-15T14:06:09;2.60;1.00
15638;DHT22;26604;53.596;10.042;2024-01-15T14:08:38;2.60;1.00
15638;DHT22;26604;53.596;10.042;2024-01-15T14:11:05;2.60;1.00
15638;DHT22;26604;53.596;10.042;2024-01-15T14:13:32;2.50;1.00
15638;DHT22;26604;53.596;10.042;2024-01-15T14:16:07;2.50;1.00
15638;DHT22;26604;53.596;10.042;2024-01-15T14:18:35;2.40;1.00
15638;DHT22;26604;53.596;10.042;2024-01-15T14:21:02;2.40;1.00
15638;DHT22;26604;53.596;10.042;2024-01-15T14:23:29;2.30;1.00
15638;DHT22;26604;53.596;10.042;2024-01-15T14:25:57;2.30;1.00
15638;DHT22;26604;53.596;10.042;2024-01-15T14:28:24;2.20;1.00
15638;DHT22;26604;53.596;10.042;2024-01-15T14:30:51;2.20;1.00
15638;DHT22;26604;53.596;10.042;2024-01-15T14:33:33;2.20;99.90
15638;DHT22;26604;53.596;10.042;2024-01-15T14:36:00;2.20;25.10
15638;DHT22;26604;53.596;10.042;2024-01-15T14:38:27;2.10;1.00
15638;DHT22;26604;53.596;10.042;2024-01-15T14:40:54;2.00;97.60
15638;DHT22;26604;53.596;10.042;2024-01-15T14:43:22;2.00;78.10
15638;DHT22;26604;53.596;10.042;2024-01-15T14:45:52;1.90;99.90
15638;DHT22;26604;53.596;10.042;2024-01-15T14:48:19;1.80;99.90
15638;DHT22;26604;53.596;10.042;2024-01-15T14:50:45;1.70;99.90
15638;DHT22;26604;53.596;10.042;2024-01-15T14:53:12;1.70;99.90
15638;DHT22;26604;53.596;10.042;2024-01-15T14:55:39;1.60;99.90
15638;DHT22;26604;53.596;10.042;2024-01-15T14:58:06;1.60;99.90
15638;DHT22;26604;53.596;10.042;2024-01-15T15:00:34;1.60;99.90
15638;DHT22;26604;53.596;10.042;2024-01-15T15:03:01;1.50;99.90
15638;DHT22;26604;53.596;10.042;2024-01-15T15:05:28;1.40;99.90
15638;DHT22;26604;53.596;10.042;2024-01-15T15:07:54;1.40;99.90
15638;DHT22;26604;53.596;10.042;2024-01-15T15:10:21;1.40;99.90
15638;DHT22;26604;53.596;10.042;2024-01-15T15:12:48;1.20;99.90
15638;DHT22;26604;53.596;10.042;2024-01-15T15:15:15;1.10;99.90
15638;DHT22;26604;53.596;10.042;2024-01-15T15:17:44;0.90;99.90
15638;DHT22;26604;53.596;10.042;2024-01-15T15:20:11;0.80;99.90
15638;DHT22;26604;53.596;10.042;2024-01-15T15:22:38;0.70;99.90
15638;DHT22;26604;53.596;10.042;2024-01-15T15:25:05;0.70;99.90
15638;DHT22;26604;53.596;10.042;2024-01-15T15:27:34;0.70;99.90
15638;DHT22;26604;53.596;10.042;2024-01-15T15:30:01;0.70;99.90
15638;DHT22;26604;53.596;10.042;2024-01-15T15:32:29;0.80;99.90
15638;DHT22;26604;53.596;10.042;2024-01-15T15:34:57;0.80;99.90
15638;DHT22;26604;53.596;10.042;2024-01-15T15:37:24;0.80;99.90
15638;DHT22;26604;53.596;10.042;2024-01-15T15:39:51;0.70;99.90
15638;DHT22;26604;53.596;10.042;2024-01-15T15:42:18;0.60;99.90
15638;DHT22;26604;53.596;10.042;2024-01-15T15:44:45;0.50;99.90
15638;DHT22;26604;53.596;10.042;2024-01-15T15:47:13;0.50;99.90
15638;DHT22;26604;53.596;10.042;2024-01-15T15:49:40;0.50;99.90
15638;DHT22;26604;53.596;10.042;2024-01-15T15:52:09;0.50;99.90
15638;DHT22;26604;53.596;10.042;2024-01-15T15:54:36;0.40;99.90
15638;DHT22;26604;53.596;10.042;2024-01-15T15:57:04;0.30;99.90
15638;DHT22;26604;53.596;10.042;2024-01-15T15:59:31;0.30;99.90
15638;DHT22;26604;53.596;10.042;2024-01-15T16:01:58;0.30;99.90
15638;DHT22;26604;53.596;10.042;2024-01-15T16:04:24;0.30;99.90
15638;DHT22;26604;53.596;10.042;2024-01-15T16:06:51;0.30;99.90
15638;DHT22;26604;53.596;10.042;2024-01-15T16:09:20;0.30;99.90
15638;DHT22;26604;53.596;10.042;2024-01-15T16:11:48;0.40;99.90
15638;DHT22;26604;53.596;10.042;2024-01-15T16:14:15;0.40;99.90
15638;DHT22;26604;53.596;10.042;2024-01-15T16:16:43;0.30;99.90
15638;DHT22;26604;53.596;10.042;2024-01-15T16:19:10;0.20;99.90
15638;DHT22;26604;53.596;10.042;2024-01-15T16:21:37;0.30;99.90
15638;DHT22;26604;53.596;10.042;2024-01-15T16:24:04;0.20;99.90
15638;DHT22;26604;53.596;10.042;2024-01-15T16:26:32;0.20;99.90
15638;DHT22;26604;53.596;10.042;2024-01-15T16:28:59;0.20;99.90
15638;DHT22;26604;53.596;10.042;2024-01-15T16:31:26;0.20;99.90
15638;DHT22;26604;53.596;10.042;2024-01-15T16:33:53;0.10;99.90
15638;DHT22;26604;53.596;10.042;2024-01-15T16:36:19;0.10;99.90
15638;DHT22;26604;53.596;10.042;2024-01-15T16:38:47;0.20;99.90
15638;DHT22;26604;53.596;10.042;2024-01-15T16:41:13;0.20;99.90
15638;DHT22;26604;53.596;10.042;2024-01-15T16:43:43;0.20;99.90
15638;DHT22;26604;53.596;10.042;2024-01-15T16:46:10;0.10;99.90
15638;DHT22;26604;53.596;10.042;2024-01-15T16:48:36;0.10;99.90
15638;DHT22;26604;53.596;10.042;2024-01-15T16:51:04;0.00;99.90
15638;DHT22;26604;53.596;10.042;2024-01-15T16:53:31;0.10;99.90
15638;DHT22;26604;53.596;10.042;2024-01-15T16:55:58;0.10;99.90
15638;DHT22;26604;53.596;10.042;2024-01-15T16:58:25;0.10;99.90
15638;DHT22;26604;53.596;10.042;2024-01-15T17:00:53;0.10;99.90
15638;DHT22;26604;53.596;10.042;2024-01-15T17:03:21;0.10;99.90
15638;DHT22;26604;53.596;10.042;2024-01-15T17:05:48;0.10;99.90
15638;DHT22;26604;53.596;10.042;2024-01-15T17:08:15;0.00;99.90
15638;DHT22;26604;53.596;10.042;2024-01-15T17:10:43;0.10;99.90
15638;DHT22;26604;53.596;10.042;2024-01-15T17:13:10;0.20;99.90
15638;DHT22;26604;53.596;10.042;2024-01-15T17:15:37;0.20;99.90
15638;DHT22;26604;53.596;10.042;2024-01-15T17:18:05;0.20;99.90
15638;DHT22;26604;53.596;10.042;2024-01-15T17:20:32;0.20;99.90
15638;DHT22;26604;53.596;10.042;2024-01-15T17:22:59;0.20;99.90
15638;DHT22;26604;53.596;10.042;2024-01-15T17:25:26;0.20;99.90
15638;DHT22;26604;53.596;10.042;2024-01-15T17:27:53;0.20;99.90
15638;DHT22;26604;53.596;10.042;2024-01-15T17:30:20;0.20;99.90
15638;DHT22;26604;53.596;10.042;2024-01-15T17:32:47;0.20;99.90
15638;DHT22;26604;53.596;10.042;2024-01-15T17:35:15;0.20;99.90
15638;DHT22;26604;53.596;10.042;2024-01-15T17:37:42;0.10;99.90
15638;DHT22;26604;53.596;10.042;2024-01-15T17:40:09;0.10;99.90
15638;DHT22;26604;53.596;10.042;2024-01-15T17:42:36;0.00;99.90
15638;DHT22;26604;53.596;10.042;2024-01-15T17:45:03;-0.10;99.90
15638;DHT22;26604;53.596;10.042;2024-01-15T17:47:35;0.00;99.90
15638;DHT22;26604;53.596;10.042;2024-01-15T17:50:05;0.00;99.90
15638;DHT22;26604;53.596;10.042;2024-01-15T17:52:33;0.00;99.90
15638;DHT22;26604;53.596;10.042;2024-01-15T17:55:02;0.10;99.90
15638;DHT22;26604;53.596;10.042;2024-01-15T17:57:29;0.10;99.90
15638;DHT22;26604;53.596;10.042;2024-01-15T18:00:00;0.10;99.90
15638;DHT22;26604;53.596;10.042;2024-01-15T18:02:29;0.20;99.90
15638;DHT22;26604;53.596;10.042;2024-01-15T18:04:57;0.20;99.90
15638;DHT22;26604;53.596;10.042;2024-01-15T18:07:25;0.20;99.90
15638;DHT22;26604;53.596;10.042;2024-01-15T18:09:54;0.30;99.90
15638;DHT22;26604;53.596;10.042;2024-01-15T18:12:21;0.40;99.90
15638;DHT22;26604;53.596;10.042;2024-01-15T18:14:47;0.50;99.90
15638;DHT22;26604;53.596;10.042;2024-01-15T18:17:14;0.60;99.90
15638;DHT22;26604;53.596;10.042;2024-01-15T18:19:42;0.70;99.90
15638;DHT22;26604;53.596;10.042;2024-01-15T18:22:09;0.80;99.90
15638;DHT22;26604;53.596;10.042;2024-01-15T18:24:36;0.90;99.90
15638;DHT22;26604;53.596;10.042;2024-01-15T18:27:04;0.90;99.90
15638;DHT22;26604;53.596;10.042;2024-01-15T18:29:31;0.90;99.90
15638;DHT22;26604;53.596;10.042;2024-01-15T18:31:58;0.90;99.90
15638;DHT22;26604;53.596;10.042;2024-01-15T18:34:25;0.90;99.90
15638;DHT22;26604;53.596;10.042;2024-01-15T18:36:52;1.00;99.90
15638;DHT22;26604;53.596;10.042;2024-01-15T18:39:19;1.00;99.90
15638;DHT22;26604;53.596;10.042;2024-01-15T18:41:46;1.00;99.90
15638;DHT22;26604;53.596;10.042;2024-01-15T18:44:14;1.00;99.90
15638;DHT22;26604;53.596;10.042;2024-01-15T18:46:41;1.00;99.90
15638;DHT22;26604;53.596;10.042;2024-01-15T18:49:10;1.10;99.90
15638;DHT22;26604;53.596;10.042;2024-01-15T18:51:37;1.10;99.90
15638;DHT22;26604;53.596;10.042;2024-01-15T18:54:04;1.10;99.90
15638;DHT22;26604;53.596;10.042;2024-01-15T18:56:31;1.10;99.90
15638;DHT22;26604;53.596;10.042;2024-01-15T18:58:59;1.10;99.90
15638;DHT22;26604;53.596;10.042;2024-01-15T19:01:28;1.10;99.90
15638;DHT22;26604;53.596;10.042;2024-01-15T19:03:56;1.10;99.90
15638;DHT22;26604;53.596;10.042;2024-01-15T19:06:23;1.10;99.90
15638;DHT22;26604;53.596;10.042;2024-01-15T19:08:51;1.10;99.90
15638;DHT22;26604;53.596;10.042;2024-01-15T19:11:18;1.10;99.90
15638;DHT22;26604;53.596;10.042;2024-01-15T19:13:45;1.10;99.90
15638;DHT22;26604;53.596;10.042;2024-01-15T19:16:12;1.20;99.90
15638;DHT22;26604;53.596;10.042;2024-01-15T19:18:41;1.20;99.90
15638;DHT22;26604;53.596;10.042;2024-01-15T19:21:08;1.20;99.90
15638;DHT22;26604;53.596;10.042;2024-01-15T19:23:35;1.20;99.90
15638;DHT22;26604;53.596;10.042;2024-01-15T19:26:02;1.30;99.90
15638;DHT22;26604;53.596;10.042;2024-01-15T19:28:29;1.30;99.90
15638;DHT22;26604;53.596;10.042;2024-01-15T19:30:56;1.30;99.90
15638;DHT22;26604;53.596;10.042;2024-01-15T19:33:23;1.30;99.90
15638;DHT22;26604;53.596;10.042;2024-01-15T19:35:51;1.30;99.90
15638;DHT22;26604;53.596;10.042;2024-01-15T19:38:18;1.40;99.90
15638;DHT22;26604;53.596;10.042;2024-01-15T19:40:45;1.40;99.90
15638;DHT22;26604;53.596;10.042;2024-01-15T19:43:12;1.40;99.90
15638;DHT22;26604;53.596;10.042;2024-01-15T19:45:39;1.50;99.90
15638;DHT22;26604;53.596;10.042;2024-01-15T19:48:06;1.50;99.90
15638;DHT22;26604;53.596;10.042;2024-01-15T19:50:32;1.50;99.90
15638;DHT22;26604;53.596;10.042;2024-01-15T19:53:01;1.60;99.90
15638;DHT22;26604;53.596;10.042;2024-01-15T19:55:28;1.60;99.90
15638;DHT22;26604;53.596;10.042;2024-01-15T19:57:54;1.60;99.90
15638;DHT22;26604;53.596;10.042;2024-01-15T20:00:22;1.60;99.90
15638;DHT22;26604;53.596;10.042;2024-01-15T20:02:48;1.60;99.90
15638;DHT22;26604;53.596;10.042;2024-01-15T20:05:15;1.60;99.90
15638;DHT22;26604;53.596;10.042;2024-01-15T20:07:42;1.60;99.90
15638;DHT22;26604;53.596;10.042;2024-01-15T20:10:10;1.60;99.90
15638;DHT22;26604;53.596;10.042;2024-01-15T20:12:38;1.70;99.90
15638;DHT22;26604;53.596;10.042;2024-01-15T20:15:06;1.70;99.90
15638;DHT22;26604;53.596;10.042;2024-01-15T20:17:33;1.70;99.90
15638;DHT22;26604;53.596;10.042;2024-01-15T20:20:00;1.70;99.90
15638;DHT22;26604;53.596;10.042;2024-01-15T20:22:28;1.70;99.90
15638;DHT22;26604;53.596;10.042;2024-01-15T20:24:55;1.70;99.90
15638;DHT22;26604;53.596;10.042;2024-01-15T20:27:23;1.70;99.90
15638;DHT22;26604;53.596;10.042;2024-01-15T20:29:51;1.80;99.90
15638;DHT22;26604;53.596;10.042;2024-01-15T20:32:18;1.80;99.90
15638;DHT22;26604;53.596;10.042;2024-01-15T20:34:45;1.70;99.90
15638;DHT22;26604;53.596;10.042;2024-01-15T20:37:12;1.70;99.90
15638;DHT22;26604;53.596;10.042;2024-01-15T20:39:39;1.50;99.90
15638;DHT22;26604;53.596;10.042;2024-01-15T20:42:06;1.50;99.90
15638;DHT22;26604;53.596;10.042;2024-01-15T20:44:34;1.50;99.90
15638;DHT22;26604;53.596;10.042;2024-01-15T20:47:01;1.50;99.90
15638;DHT22;26604;53.596;10.042;2024-01-15T20:49:28;1.50;99.90
15638;DHT22;26604;53.596;10.042;2024-01-15T20:51:55;1.40;99.90
15638;DHT22;26604;53.596;10.042;2024-01-15T20:54:23;1.30;99.90
15638;DHT22;26604;53.596;10.042;2024-01-15T20:56:50;1.30;99.90
15638;DHT22;26604;53.596;10.042;2024-01-15T20:59:17;1.20;99.90
15638;DHT22;26604;53.596;10.042;2024-01-15T21:01:45;1.10;99.90
15638;DHT22;26604;53.596;10.042;2024-01-15T21:04:12;1.10;99.90
15638;DHT22;26604;53.596;10.042;2024-01-15T21:06:39;1.00;99.90
15638;DHT22;26604;53.596;10.042;2024-01-15T21:09:05;1.10;99.90
15638;DHT22;26604;53.596;10.042;2024-01-15T21:11:34;1.00;99.90